sensor_id;sensor_type;location;lat;lon;timestamp;P1;durP1;ratioP1;P2;durP2;ratioP2
18695;SDS011;22617;43.690;27.956;2023-04-23T00:03:47;14.10;;;7.10;;
18695;SDS011;22617;43.690;27.956;2023-04-23T00:08:52;11.47;;;6.90;;
18695;SDS011;22617;43.690;27.956;2023-04-23T00:13:56;11.03;;;6.77;;
18695;SDS011;22617;43.690;27.956;2023-04-23T00:19:02;12.23;;;6.87;;
18695;SDS011;22617;43.690;27.956;2023-04-23T00:24:05;12.17;;;6.90;;
18695;SDS011;22617;43.690;27.956;2023-04-23T00:29:09;12.40;;;6.50;;
18695;SDS011;22617;43.690;27.956;2023-04-23T00:34:14;12.13;;;6.60;;
18695;SDS011;22617;43.690;27.956;2023-04-23T00:39:17;9.33;;;5.40;;
18695;SDS011;22617;43.690;27.956;2023-04-23T00:44:21;11.53;;;5.93;;
18695;SDS011;22617;43.690;27.956;2023-04-23T00:49:27;9.67;;;5.87;;
18695;SDS011;22617;43.690;27.956;2023-04-23T00:54:31;13.10;;;6.73;;
18695;SDS011;22617;43.690;27.956;2023-04-23T00:59:35;10.23;;;7.00;;
18695;SDS011;22617;43.690;27.956;2023-04-23T01:04:40;11.10;;;7.10;;
18695;SDS011;22617;43.690;27.956;2023-04-23T01:09:46;17.93;;;8.17;;
18695;SDS011;22617;43.690;27.956;2023-04-23T01:14:51;13.70;;;7.80;;
18695;SDS011;22617;43.690;27.956;2023-04-23T01:19:57;10.63;;;6.17;;
18695;SDS011;22617;43.690;27.956;2023-04-23T01:25:02;13.80;;;6.60;;
18695;SDS011;22617;43.690;27.956;2023-04-23T01:30:06;10.33;;;6.13;;
18695;SDS011;22617;43.690;27.956;2023-04-23T01:35:11;10.93;;;6.70;;
18695;SDS011;22617;43.690;27.956;2023-04-23T01:40:16;13.30;;;7.67;;
18695;SDS011;22617;43.690;27.956;2023-04-23T01:45:20;13.33;;;8.00;;
18695;SDS011;22617;43.690;27.956;2023-04-23T01:50:24;13.47;;;7.53;;
18695;SDS011;22617;43.690;27.956;2023-04-23T01:55:31;21.23;;;8.50;;
18695;SDS011;22617;43.690;27.956;2023-04-23T02:00:36;17.47;;;8.53;;
18695;SDS011;22617;43.690;27.956;2023-04-23T02:05:40;11.30;;;7.57;;
18695;SDS011;22617;43.690;27.956;2023-04-23T02:10:46;13.40;;;8.03;;
18695;SDS011;22617;43.690;27.956;2023-04-23T02:15:49;14.43;;;7.40;;
18695;SDS011;22617;43.690;27.956;2023-04-23T02:20:53;12.17;;;6.90;;
18695;SDS011;22617;43.690;27.956;2023-04-23T02:26:01;14.47;;;7.50;;
18695;SDS011;22617;43.690;27.956;2023-04-23T02:31:05;17.97;;;8.70;;
18695;SDS011;22617;43.690;27.956;2023-04-23T02:36:12;13.83;;;7.07;;
18695;SDS011;22617;43.690;27.956;2023-04-23T02:41:17;10.57;;;6.57;;
18695;SDS011;22617;43.690;27.956;2023-04-23T02:46:20;10.40;;;6.80;;
18695;SDS011;22617;43.690;27.956;2023-04-23T02:51:24;11.67;;;7.03;;
18695;SDS011;22617;43.690;27.956;2023-04-23T02:56:29;11.80;;;6.73;;
18695;SDS011;22617;43.690;27.956;2023-04-23T03:01:33;11.90;;;6.13;;
18695;SDS011;22617;43.690;27.956;2023-04-23T03:06:38;16.40;;;6.57;;
18695;SDS011;22617;43.690;27.956;2023-04-23T03:11:44;11.17;;;6.27;;
18695;SDS011;22617;43.690;27.956;2023-04-23T03:16:48;11.27;;;6.17;;
18695;SDS011;22617;43.690;27.956;2023-04-23T03:21:51;14.30;;;7.30;;
18695;SDS011;22617;43.690;27.956;2023-04-23T03:26:56;13.43;;;7.93;;
18695;SDS011;22617;43.690;27.956;2023-04-23T03:32:00;11.90;;;7.40;;
18695;SDS011;22617;43.690;27.956;2023-04-23T03:37:05;10.50;;;6.50;;
18695;SDS011;22617;43.690;27.956;2023-04-23T03:42:13;19.17;;;7.97;;
18695;SDS011;22617;43.690;27.956;2023-04-23T03:47:17;12.60;;;7.50;;
18695;SDS011;22617;43.690;27.956;2023-04-23T03:52:22;12.80;;;6.83;;
18695;SDS011;22617;43.690;27.956;2023-04-23T03:57:28;17.60;;;8.83;;
18695;SDS011;22617;43.690;27.956;2023-04-23T04:02:48;12.80;;;7.70;;
18695;SDS011;22617;43.690;27.956;2023-04-23T04:07:52;13.23;;;7.80;;
18695;SDS011;22617;43.690;27.956;2023-04-23T04:13:00;13.70;;;7.63;;
18695;SDS011;22617;43.690;27.956;2023-04-23T04:18:04;13.83;;;7.40;;
18695;SDS011;22617;43.690;27.956;2023-04-23T04:23:08;15.97;;;8.00;;
18695;SDS011;22617;43.690;27.956;2023-04-23T04:28:13;14.13;;;7.43;;
18695;SDS011;22617;43.690;27.956;2023-04-23T04:33:17;13.30;;;7.40;;
18695;SDS011;22617;43.690;27.956;2023-04-23T04:38:21;14.97;;;7.50;;
18695;SDS011;22617;43.690;27.956;2023-04-23T04:43:26;15.47;;;7.60;;
18695;SDS011;22617;43.690;27.956;2023-04-23T04:48:30;21.37;;;9.13;;
18695;SDS011;22617;43.690;27.956;2023-04-23T04:53:33;14.93;;;8.40;;
18695;SDS011;22617;43.690;27.956;2023-04-23T04:58:39;16.40;;;8.47;;
18695;SDS011;22617;43.690;27.956;2023-04-23T05:03:43;16.50;;;7.30;;
18695;SDS011;22617;43.690;27.956;2023-04-23T05:08:47;17.20;;;7.20;;
18695;SDS011;22617;43.690;27.956;2023-04-23T05:13:52;15.20;;;7.70;;
18695;SDS011;22617;43.690;27.956;2023-04-23T05:18:56;15.67;;;7.37;;
18695;SDS011;22617;43.690;27.956;2023-04-23T05:23:59;15.13;;;7.70;;
18695;SDS011;22617;43.690;27.956;2023-04-23T05:29:04;15.10;;;7.60;;
18695;SDS011;22617;43.690;27.956;2023-04-23T05:34:08;18.60;;;6.73;;
18695;SDS011;22617;43.690;27.956;2023-04-23T05:39:11;11.90;;;6.00;;
18695;SDS011;22617;43.690;27.956;2023-04-23T05:44:16;10.63;;;6.20;;
18695;SDS011;22617;43.690;27.956;2023-04-23T05:49:19;17.27;;;6.53;;
18695;SDS011;22617;43.690;27.956;2023-04-23T05:54:23;13.13;;;6.87;;
18695;SDS011;22617;43.690;27.956;2023-04-23T05:59:28;12.47;;;6.50;;
18695;SDS011;22617;43.690;27.956;2023-04-23T06:04:32;18.10;;;7.57;;
18695;SDS011;22617;43.690;27.956;2023-04-23T06:09:37;12.43;;;7.03;;
18695;SDS011;22617;43.690;27.956;2023-04-23T06:14:42;15.77;;;6.50;;
18695;SDS011;22617;43.690;27.956;2023-04-23T06:19:45;13.87;;;6.53;;
18695;SDS011;22617;43.690;27.956;2023-04-23T06:24:58;11.83;;;5.90;;
18695;SDS011;22617;43.690;27.956;2023-04-23T06:30:06;13.17;;;6.00;;
18695;SDS011;22617;43.690;27.956;2023-04-23T06:35:10;11.90;;;5.20;;
18695;SDS011;22617;43.690;27.956;2023-04-23T06:40:13;14.83;;;5.40;;
18695;SDS011;22617;43.690;27.956;2023-04-23T06:45:18;12.17;;;5.87;;
18695;SDS011;22617;43.690;27.956;2023-04-23T06:50:22;10.17;;;5.13;;
18695;SDS011;22617;43.690;27.956;2023-04-23T06:55:26;8.03;;;4.20;;
18695;SDS011;22617;43.690;27.956;2023-04-23T07:00:31;8.70;;;3.83;;
18695;SDS011;22617;43.690;27.956;2023-04-23T07:05:36;11.03;;;3.80;;
18695;SDS011;22617;43.690;27.956;2023-04-23T07:10:39;10.50;;;4.40;;
18695;SDS011;22617;43.690;27.956;2023-04-23T07:15:44;5.77;;;3.63;;
18695;SDS011;22617;43.690;27.956;2023-04-23T07:20:49;10.33;;;4.27;;
18695;SDS011;22617;43.690;27.956;2023-04-23T07:25:53;10.67;;;4.00;;
18695;SDS011;22617;43.690;27.956;2023-04-23T07:30:58;9.03;;;4.23;;
18695;SDS011;22617;43.690;27.956;2023-04-23T07:36:02;9.87;;;3.73;;
18695;SDS011;22617;43.690;27.956;2023-04-23T07:41:05;6.23;;;3.60;;
18695;SDS011;22617;43.690;27.956;2023-04-23T07:46:10;8.63;;;3.67;;
18695;SDS011;22617;43.690;27.956;2023-04-23T07:51:14;5.87;;;3.30;;
18695;SDS011;22617;43.690;27.956;2023-04-23T07:56:18;7.40;;;3.83;;
18695;SDS011;22617;43.690;27.956;2023-04-23T08:01:23;7.03;;;4.20;;
18695;SDS011;22617;43.690;27.956;2023-04-23T08:06:27;8.33;;;3.80;;
18695;SDS011;22617;43.690;27.956;2023-04-23T08:11:32;9.07;;;3.47;;
18695;SDS011;22617;43.690;27.956;2023-04-23T08:16:37;9.27;;;5.13;;
18695;SDS011;22617;43.690;27.956;2023-04-23T08:21:41;16.53;;;3.97;;
18695;SDS011;22617;43.690;27.956;2023-04-23T08:26:44;6.90;;;3.67;;
18695;SDS011;22617;43.690;27.956;2023-04-23T08:31:51;9.27;;;3.90;;
18695;SDS011;22617;43.690;27.956;2023-04-23T08:36:55;6.53;;;3.73;;
18695;SDS011;22617;43.690;27.956;2023-04-23T08:42:00;6.87;;;3.90;;
18695;SDS011;22617;43.690;27.956;2023-04-23T08:47:11;5.68;;;3.47;;
18695;SDS011;22617;43.690;27.956;2023-04-23T08:52:21;6.20;;;3.63;;
18695;SDS011;22617;43.690;27.956;2023-04-23T08:57:27;8.77;;;3.87;;
18695;SDS011;22617;43.690;27.956;2023-04-23T09:02:32;6.17;;;4.13;;
18695;SDS011;22617;43.690;27.956;2023-04-23T09:07:37;8.57;;;3.93;;
18695;SDS011;22617;43.690;27.956;2023-04-23T09:12:41;8.80;;;4.22;;
18695;SDS011;22617;43.690;27.956;2023-04-23T09:17:47;7.10;;;3.70;;
18695;SDS011;22617;43.690;27.956;2023-04-23T09:22:51;4.80;;;3.80;;
18695;SDS011;22617;43.690;27.956;2023-04-23T09:27:57;6.03;;;3.53;;
18695;SDS011;22617;43.690;27.956;2023-04-23T09:33:03;10.33;;;3.53;;
18695;SDS011;22617;43.690;27.956;2023-04-23T09:38:07;8.30;;;3.93;;
18695;SDS011;22617;43.690;27.956;2023-04-23T09:43:11;10.65;;;4.63;;
18695;SDS011;22617;43.690;27.956;2023-04-23T09:48:16;7.47;;;3.60;;
18695;SDS011;22617;43.690;27.956;2023-04-23T09:53:21;9.23;;;4.07;;
18695;SDS011;22617;43.690;27.956;2023-04-23T09:58:24;6.33;;;3.63;;
18695;SDS011;22617;43.690;27.956;2023-04-23T10:03:31;7.77;;;3.70;;
18695;SDS011;22617;43.690;27.956;2023-04-23T10:08:34;6.97;;;4.00;;
18695;SDS011;22617;43.690;27.956;2023-04-23T10:13:38;7.37;;;3.97;;
18695;SDS011;22617;43.690;27.956;2023-04-23T10:18:43;6.20;;;3.70;;
18695;SDS011;22617;43.690;27.956;2023-04-23T10:23:47;9.83;;;4.30;;
18695;SDS011;22617;43.690;27.956;2023-04-23T10:28:53;8.07;;;3.83;;
18695;SDS011;22617;43.690;27.956;2023-04-23T10:34:00;10.93;;;4.20;;
18695;SDS011;22617;43.690;27.956;2023-04-23T10:39:07;9.00;;;3.80;;
18695;SDS011;22617;43.690;27.956;2023-04-23T10:44:11;9.67;;;4.00;;
18695;SDS011;22617;43.690;27.956;2023-04-23T10:49:21;6.50;;;3.63;;
18695;SDS011;22617;43.690;27.956;2023-04-23T10:54:27;12.48;;;4.07;;
18695;SDS011;22617;43.690;27.956;2023-04-23T10:59:33;6.47;;;3.70;;
18695;SDS011;22617;43.690;27.956;2023-04-23T11:04:43;5.85;;;3.72;;
18695;SDS011;22617;43.690;27.956;2023-04-23T11:09:48;7.73;;;3.83;;
18695;SDS011;22617;43.690;27.956;2023-04-23T11:14:54;8.27;;;3.77;;
18695;SDS011;22617;43.690;27.956;2023-04-23T11:20:08;8.63;;;3.60;;
18695;SDS011;22617;43.690;27.956;2023-04-23T11:25:17;10.03;;;3.93;;
18695;SDS011;22617;43.690;27.956;2023-04-23T11:30:24;7.57;;;3.80;;
18695;SDS011;22617;43.690;27.956;2023-04-23T11:35:30;4.23;;;3.30;;
18695;SDS011;22617;43.690;27.956;2023-04-23T11:40:40;7.93;;;4.00;;
18695;SDS011;22617;43.690;27.956;2023-04-23T11:45:44;8.50;;;4.20;;
18695;SDS011;22617;43.690;27.956;2023-04-23T11:50:50;7.00;;;3.97;;
18695;SDS011;22617;43.690;27.956;2023-04-23T11:55:54;7.63;;;4.00;;
18695;SDS011;22617;43.690;27.956;2023-04-23T12:00:58;6.87;;;4.20;;
18695;SDS011;22617;43.690;27.956;2023-04-23T12:06:04;6.40;;;3.90;;
18695;SDS011;22617;43.690;27.956;2023-04-23T12:11:10;9.60;;;4.33;;
18695;SDS011;22617;43.690;27.956;2023-04-23T12:16:14;6.93;;;3.37;;
18695;SDS011;22617;43.690;27.956;2023-04-23T12:21:18;5.50;;;3.87;;
18695;SDS011;22617;43.690;27.956;2023-04-23T12:26:24;9.30;;;3.17;;
18695;SDS011;22617;43.690;27.956;2023-04-23T12:31:30;5.53;;;2.93;;
18695;SDS011;22617;43.690;27.956;2023-04-23T12:36:35;7.03;;;3.33;;
18695;SDS011;22617;43.690;27.956;2023-04-23T12:41:41;5.87;;;3.10;;
18695;SDS011;22617;43.690;27.956;2023-04-23T12:46:48;4.40;;;2.83;;
18695;SDS011;22617;43.690;27.956;2023-04-23T12:51:57;5.00;;;3.33;;
18695;SDS011;22617;43.690;27.956;2023-04-23T12:57:03;8.03;;;4.47;;
18695;SDS011;22617;43.690;27.956;2023-04-23T13:02:08;3.53;;;2.60;;
18695;SDS011;22617;43.690;27.956;2023-04-23T13:07:13;6.10;;;2.80;;
18695;SDS011;22617;43.690;27.956;2023-04-23T13:12:17;7.70;;;3.43;;
18695;SDS011;22617;43.690;27.956;2023-04-23T13:17:20;3.70;;;2.70;;
18695;SDS011;22617;43.690;27.956;2023-04-23T13:22:27;4.63;;;3.00;;
18695;SDS011;22617;43.690;27.956;2023-04-23T13:27:31;4.60;;;2.37;;
18695;SDS011;22617;43.690;27.956;2023-04-23T13:32:35;5.18;;;2.80;;
18695;SDS011;22617;43.690;27.956;2023-04-23T13:37:39;5.37;;;2.70;;
18695;SDS011;22617;43.690;27.956;2023-04-23T13:42:43;5.83;;;2.70;;
18695;SDS011;22617;43.690;27.956;2023-04-23T13:47:48;5.38;;;3.03;;
18695;SDS011;22617;43.690;27.956;2023-04-23T13:52:54;4.50;;;2.83;;
18695;SDS011;22617;43.690;27.956;2023-04-23T13:57:57;5.83;;;2.33;;
18695;SDS011;22617;43.690;27.956;2023-04-23T14:03:01;3.57;;;2.90;;
18695;SDS011;22617;43.690;27.956;2023-04-23T14:08:06;4.53;;;2.70;;
18695;SDS011;22617;43.690;27.956;2023-04-23T14:13:09;4.23;;;2.80;;
18695;SDS011;22617;43.690;27.956;2023-04-23T14:18:13;5.65;;;3.00;;
18695;SDS011;22617;43.690;27.956;2023-04-23T14:28:53;4.87;;;2.97;;
18695;SDS011;22617;43.690;27.956;2023-04-23T14:34:00;9.03;;;3.40;;
18695;SDS011;22617;43.690;27.956;2023-04-23T14:39:05;4.45;;;3.17;;
18695;SDS011;22617;43.690;27.956;2023-04-23T14:44:08;5.32;;;3.17;;
18695;SDS011;22617;43.690;27.956;2023-04-23T14:49:12;4.83;;;2.40;;
18695;SDS011;22617;43.690;27.956;2023-04-23T14:54:17;3.77;;;2.47;;
18695;SDS011;22617;43.690;27.956;2023-04-23T14:59:22;10.73;;;4.95;;
18695;SDS011;22617;43.690;27.956;2023-04-23T15:04:25;3.47;;;2.60;;
18695;SDS011;22617;43.690;27.956;2023-04-23T15:09:30;3.57;;;2.67;;
18695;SDS011;22617;43.690;27.956;2023-04-23T15:14:35;8.40;;;4.37;;
18695;SDS011;22617;43.690;27.956;2023-04-23T15:19:39;9.90;;;4.60;;
18695;SDS011;22617;43.690;27.956;2023-04-23T15:24:45;4.33;;;3.03;;
18695;SDS011;22617;43.690;27.956;2023-04-23T15:29:49;3.63;;;2.70;;
18695;SDS011;22617;43.690;27.956;2023-04-23T15:34:53;5.57;;;2.80;;
18695;SDS011;22617;43.690;27.956;2023-04-23T15:39:57;6.67;;;3.23;;
18695;SDS011;22617;43.690;27.956;2023-04-23T15:45:01;6.47;;;2.93;;
18695;SDS011;22617;43.690;27.956;2023-04-23T15:50:06;7.23;;;4.10;;
18695;SDS011;22617;43.690;27.956;2023-04-23T15:55:12;6.13;;;3.00;;
18695;SDS011;22617;43.690;27.956;2023-04-23T16:00:15;6.93;;;3.87;;
18695;SDS011;22617;43.690;27.956;2023-04-23T16:05:19;4.93;;;3.37;;
18695;SDS011;22617;43.690;27.956;2023-04-23T16:10:24;6.03;;;3.43;;
18695;SDS011;22617;43.690;27.956;2023-04-23T16:15:30;6.43;;;4.07;;
18695;SDS011;22617;43.690;27.956;2023-04-23T16:20:33;4.83;;;3.43;;
18695;SDS011;22617;43.690;27.956;2023-04-23T16:25:39;7.97;;;3.70;;
18695;SDS011;22617;43.690;27.956;2023-04-23T16:30:42;9.90;;;3.90;;
18695;SDS011;22617;43.690;27.956;2023-04-23T16:35:46;11.20;;;4.37;;
18695;SDS011;22617;43.690;27.956;2023-04-23T16:40:51;10.33;;;4.30;;
18695;SDS011;22617;43.690;27.956;2023-04-23T16:45:55;6.87;;;3.97;;
18695;SDS011;22617;43.690;27.956;2023-04-23T16:50:59;8.57;;;5.07;;
18695;SDS011;22617;43.690;27.956;2023-04-23T16:56:04;9.70;;;4.27;;
18695;SDS011;22617;43.690;27.956;2023-04-23T17:01:08;7.30;;;4.40;;
18695;SDS011;22617;43.690;27.956;2023-04-23T17:06:17;8.50;;;4.47;;
18695;SDS011;22617;43.690;27.956;2023-04-23T17:11:28;12.90;;;5.53;;
18695;SDS011;22617;43.690;27.956;2023-04-23T17:16:32;9.03;;;4.40;;
18695;SDS011;22617;43.690;27.956;2023-04-23T17:21:36;8.03;;;4.33;;
18695;SDS011;22617;43.690;27.956;2023-04-23T17:26:41;9.87;;;4.90;;
18695;SDS011;22617;43.690;27.956;2023-04-23T17:31:45;10.33;;;4.93;;
18695;SDS011;22617;43.690;27.956;2023-04-23T17:36:50;10.50;;;6.13;;
18695;SDS011;22617;43.690;27.956;2023-04-23T17:41:58;13.67;;;7.27;;
18695;SDS011;22617;43.690;27.956;2023-04-23T17:47:02;10.40;;;6.47;;
18695;SDS011;22617;43.690;27.956;2023-04-23T17:52:06;8.27;;;4.37;;
18695;SDS011;22617;43.690;27.956;2023-04-23T17:57:11;8.40;;;4.57;;
18695;SDS011;22617;43.690;27.956;2023-04-23T18:02:15;9.40;;;4.27;;
18695;SDS011;22617;43.690;27.956;2023-04-23T18:07:19;11.77;;;5.93;;
18695;SDS011;22617;43.690;27.956;2023-04-23T18:12:24;9.37;;;4.50;;
18695;SDS011;22617;43.690;27.956;2023-04-23T18:17:28;9.43;;;4.57;;
18695;SDS011;22617;43.690;27.956;2023-04-23T18:22:33;12.83;;;5.10;;
18695;SDS011;22617;43.690;27.956;2023-04-23T18:27:39;8.43;;;4.53;;
18695;SDS011;22617;43.690;27.956;2023-04-23T18:32:46;10.80;;;4.77;;
18695;SDS011;22617;43.690;27.956;2023-04-23T18:37:51;8.87;;;4.50;;
18695;SDS011;22617;43.690;27.956;2023-04-23T18:42:58;11.33;;;4.67;;
18695;SDS011;22617;43.690;27.956;2023-04-23T18:48:02;9.47;;;4.80;;
18695;SDS011;22617;43.690;27.956;2023-04-23T18:53:26;8.50;;;5.00;;
18695;SDS011;22617;43.690;27.956;2023-04-23T18:58:31;8.70;;;4.77;;
18695;SDS011;22617;43.690;27.956;2023-04-23T19:03:34;8.57;;;5.20;;
18695;SDS011;22617;43.690;27.956;2023-04-23T19:08:38;10.97;;;5.70;;
18695;SDS011;22617;43.690;27.956;2023-04-23T19:13:44;8.37;;;5.07;;
18695;SDS011;22617;43.690;27.956;2023-04-23T19:18:48;9.80;;;4.53;;
18695;SDS011;22617;43.690;27.956;2023-04-23T19:23:52;8.00;;;4.60;;
18695;SDS011;22617;43.690;27.956;2023-04-23T19:28:58;12.03;;;5.20;;
18695;SDS011;22617;43.690;27.956;2023-04-23T19:34:02;9.00;;;4.63;;
18695;SDS011;22617;43.690;27.956;2023-04-23T19:39:06;9.17;;;4.67;;
18695;SDS011;22617;43.690;27.956;2023-04-23T19:44:12;9.50;;;4.63;;
18695;SDS011;22617;43.690;27.956;2023-04-23T19:49:16;10.20;;;4.63;;
18695;SDS011;22617;43.690;27.956;2023-04-23T19:54:19;9.67;;;4.90;;
18695;SDS011;22617;43.690;27.956;2023-04-23T19:59:26;8.57;;;4.43;;
18695;SDS011;22617;43.690;27.956;2023-04-23T20:04:31;7.97;;;4.60;;
18695;SDS011;22617;43.690;27.956;2023-04-23T20:09:35;12.97;;;4.20;;
18695;SDS011;22617;43.690;27.956;2023-04-23T20:14:40;11.60;;;4.20;;
18695;SDS011;22617;43.690;27.956;2023-04-23T20:19:43;14.13;;;4.63;;
18695;SDS011;22617;43.690;27.956;2023-04-23T20:24:47;8.60;;;4.20;;
18695;SDS011;22617;43.690;27.956;2023-04-23T20:29:52;10.43;;;4.87;;
18695;SDS011;22617;43.690;27.956;2023-04-23T20:34:56;10.57;;;4.43;;
18695;SDS011;22617;43.690;27.956;2023-04-23T20:40:01;8.23;;;4.07;;
18695;SDS011;22617;43.690;27.956;2023-04-23T20:45:08;12.07;;;4.90;;
18695;SDS011;22617;43.690;27.956;2023-04-23T20:50:13;8.53;;;4.77;;
18695;SDS011;22617;43.690;27.956;2023-04-23T20:55:17;8.30;;;4.33;;
18695;SDS011;22617;43.690;27.956;2023-04-23T21:00:22;13.30;;;5.07;;
18695;SDS011;22617;43.690;27.956;2023-04-23T21:05:26;6.83;;;4.70;;
18695;SDS011;22617;43.690;27.956;2023-04-23T21:10:29;8.67;;;4.70;;
18695;SDS011;22617;43.690;27.956;2023-04-23T21:15:34;9.13;;;4.90;;
18695;SDS011;22617;43.690;27.956;2023-04-23T21:20:38;10.37;;;5.00;;
18695;SDS011;22617;43.690;27.956;2023-04-23T21:25:42;12.77;;;4.90;;
18695;SDS011;22617;43.690;27.956;2023-04-23T21:30:47;10.27;;;5.60;;
18695;SDS011;22617;43.690;27.956;2023-04-23T21:35:53;9.97;;;4.83;;
18695;SDS011;22617;43.690;27.956;2023-04-23T21:40:57;8.20;;;4.50;;
18695;SDS011;22617;43.690;27.956;2023-04-23T21:46:02;9.27;;;4.70;;
18695;SDS011;22617;43.690;27.956;2023-04-23T21:51:06;8.80;;;4.50;;
18695;SDS011;22617;43.690;27.956;2023-04-23T21:56:09;8.90;;;4.67;;
18695;SDS011;22617;43.690;27.956;2023-04-23T22:01:14;10.83;;;5.10;;
18695;SDS011;22617;43.690;27.956;2023-04-23T22:06:19;7.80;;;4.23;;
18695;SDS011;22617;43.690;27.956;2023-04-23T22:11:23;8.60;;;5.00;;
18695;SDS011;22617;43.690;27.956;2023-04-23T22:16:29;10.37;;;4.97;;
18695;SDS011;22617;43.690;27.956;2023-04-23T22:21:32;12.60;;;5.43;;
18695;SDS011;22617;43.690;27.956;2023-04-23T22:26:36;6.97;;;4.87;;
18695;SDS011;22617;43.690;27.956;2023-04-23T22:31:41;7.93;;;5.30;;
18695;SDS011;22617;43.690;27.956;2023-04-23T22:36:44;11.37;;;5.27;;
18695;SDS011;22617;43.690;27.956;2023-04-23T22:41:48;10.50;;;4.67;;
18695;SDS011;22617;43.690;27.956;2023-04-23T22:46:53;10.63;;;5.30;;
18695;SDS011;22617;43.690;27.956;2023-04-23T22:51:57;10.37;;;5.20;;
18695;SDS011;22617;43.690;27.956;2023-04-23T22:57:01;7.43;;;5.03;;
18695;SDS011;22617;43.690;27.956;2023-04-23T23:02:06;8.27;;;4.93;;
18695;SDS011;22617;43.690;27.956;2023-04-23T23:07:10;8.97;;;5.00;;
18695;SDS011;22617;43.690;27.956;2023-04-23T23:12:15;9.43;;;5.10;;
18695;SDS011;22617;43.690;27.956;2023-04-23T23:17:20;11.47;;;4.97;;
18695;SDS011;22617;43.690;27.956;2023-04-23T23:22:24;10.37;;;5.00;;
18695;SDS011;22617;43.690;27.956;2023-04-23T23:27:28;8.37;;;4.97;;
18695;SDS011;22617;43.690;27.956;2023-04-23T23:32:33;11.20;;;4.80;;
18695;SDS011;22617;43.690;27.956;2023-04-23T23:37:37;7.93;;;5.00;;
18695;SDS011;22617;43.690;27.956;2023-04-23T23:42:41;11.00;;;5.23;;
18695;SDS011;22617;43.690;27.956;2023-04-23T23:47:46;9.17;;;5.10;;
18695;SDS011;22617;43.690;27.956;2023-04-23T23:52:50;12.47;;;4.83;;
18695;SDS011;22617;43.690;27.956;2023-04-23T23:57:54;8.07;;;4.70;;
